createdAt,value
2018-11-13T00:00:35.601Z,32.93
2018-11-13T00:03:05.122Z,35.43
2018-11-13T00:05:40.754Z,35.03
2018-11-13T00:08:10.425Z,34.10
2018-11-13T00:10:40.039Z,34.00
2018-11-13T00:13:09.781Z,35.90
2018-11-13T00:15:39.698Z,31.57
2018-11-13T00:18:08.711Z,36.07
2018-11-13T00:20:37.969Z,31.23
2018-11-13T00:23:07.670Z,33.17
2018-11-13T00:25:36.906Z,34.53
2018-11-13T00:28:05.837Z,30.10
2018-11-13T00:30:34.814Z,33.90
2018-11-13T00:33:03.746Z,30.27
2018-11-13T00:35:32.997Z,32.27
2018-11-13T00:38:02.106Z,32.63
2018-11-13T00:40:30.986Z,31.30
2018-11-13T00:42:59.875Z,35.10
2018-11-13T00:45:29.123Z,33.97
2018-11-13T00:47:58.254Z,32.90
2018-11-13T00:50:27.206Z,30.20
2018-11-13T00:52:56.459Z,32.00
2018-11-13T00:55:25.337Z,29.97
2018-11-13T00:57:54.283Z,26.63
2018-11-13T01:00:23.225Z,28.90
2018-11-13T01:02:52.612Z,27.87
2018-11-13T01:05:22.061Z,25.27
2018-11-13T01:07:52.105Z,25.90
2018-11-13T01:10:21.785Z,28.90
2018-11-13T01:12:51.001Z,25.97
2018-11-13T01:15:21.073Z,27.97
2018-11-13T01:17:50.393Z,28.20
2018-11-13T01:20:20.041Z,28.13
2018-11-13T01:22:49.395Z,29.67
2018-11-13T01:25:18.706Z,27.13
2018-11-13T01:27:47.660Z,28.43
2018-11-13T01:30:17.548Z,28.80
2018-11-13T01:32:47.081Z,31.17
2018-11-13T01:35:17.358Z,33.37
2018-11-13T01:37:46.311Z,32.43
2018-11-13T01:40:17.082Z,30.77
2018-11-13T01:42:46.044Z,30.40
2018-11-13T01:45:16.162Z,33.57
2018-11-13T01:47:45.266Z,31.63
2018-11-13T01:50:14.701Z,31.43
2018-11-13T01:52:43.612Z,29.33
2018-11-13T01:55:13.957Z,31.43
2018-11-13T01:57:42.881Z,26.47
2018-11-13T02:00:16.906Z,24.13
2018-11-13T02:02:47.207Z,24.43
2018-11-13T02:05:16.944Z,23.50
2018-11-13T02:07:46.289Z,25.67
2018-11-13T02:10:15.923Z,26.57
2018-11-13T02:12:45.345Z,27.53
2018-11-13T02:15:14.526Z,27.50
2018-11-13T02:17:44.118Z,27.83
2018-11-13T02:20:15.924Z,30.67
2018-11-13T02:22:45.361Z,32.03
2018-11-13T02:25:16.606Z,34.70
2018-11-13T02:27:46.081Z,35.33
2018-11-13T02:30:20.042Z,34.57
2018-11-13T02:32:49.613Z,39.03
2018-11-13T02:35:18.766Z,50.60
2018-11-13T02:37:47.718Z,41.20
2018-11-13T02:40:17.017Z,43.27
2018-11-13T02:42:45.917Z,55.63
2018-11-13T02:45:16.892Z,53.03
2018-11-13T02:47:45.843Z,50.97
2018-11-13T02:50:16.818Z,59.67
2018-11-13T02:52:45.798Z,59.67
2018-11-13T02:55:15.024Z,64.93
2018-11-13T02:57:44.672Z,69.87
2018-11-13T03:00:15.648Z,67.90
2018-11-13T03:02:44.950Z,72.10
2018-11-13T03:05:17.334Z,76.73
2018-11-13T03:07:46.731Z,89.93
2018-11-13T03:10:16.824Z,127.73
2018-11-13T03:12:46.198Z,86.70
2018-11-13T03:15:16.475Z,92.70
2018-11-13T03:17:45.406Z,90.63
2018-11-13T03:20:16.394Z,118.70
2018-11-13T03:22:46.065Z,133.63
2018-11-13T03:25:16.578Z,138.17
2018-11-13T03:27:45.485Z,198.13
2018-11-13T03:30:25.079Z,190.73
2018-11-13T03:32:54.715Z,175.60
2018-11-13T03:35:24.060Z,168.27
2018-11-13T03:37:53.242Z,169.90
2018-11-13T03:40:22.972Z,148.70
2018-11-13T03:42:52.410Z,180.63
2018-11-13T03:45:21.631Z,173.70
2018-11-13T03:47:50.813Z,200.57
2018-11-13T03:50:21.209Z,226.13
2018-11-13T03:52:50.553Z,193.00
2018-11-13T03:55:20.253Z,214.67
2018-11-13T03:57:50.070Z,206.07
2018-11-13T04:00:23.571Z,211.67
2018-11-13T04:02:52.765Z,256.70
2018-11-13T04:05:22.250Z,256.03
2018-11-13T04:07:53.581Z,273.63
2018-11-13T04:10:23.201Z,254.60
2018-11-13T04:12:52.672Z,219.97
2018-11-13T04:15:24.754Z,303.20
2018-11-13T04:17:53.691Z,242.97
2018-11-13T04:20:23.334Z,193.93
2018-11-13T04:22:52.332Z,232.70
2018-11-13T04:25:21.574Z,294.07
2018-11-13T04:27:50.649Z,314.13
2018-11-13T04:30:20.210Z,313.97
2018-11-13T04:32:49.523Z,310.17
2018-11-13T04:35:19.193Z,279.17
2018-11-13T04:37:48.385Z,169.67
2018-11-13T04:40:18.625Z,68.67
2018-11-13T04:42:50.943Z,39.50
2018-11-13T04:45:21.221Z,19.43
2018-11-13T04:47:51.051Z,10.33
2018-11-13T04:50:21.189Z,13.47
2018-11-13T04:52:50.569Z,35.13
2018-11-13T04:55:20.060Z,71.20
2018-11-13T04:57:50.009Z,14.27
2018-11-13T05:00:20.718Z,26.47
2018-11-13T05:02:50.242Z,10.93
2018-11-13T05:05:20.050Z,48.73
2018-11-13T05:07:52.421Z,23.83
2018-11-13T05:10:21.513Z,3.90
2018-11-13T05:12:50.542Z,4.67
2018-11-13T05:15:19.818Z,4.40
2018-11-13T05:17:49.385Z,8.70
2018-11-13T05:20:18.882Z,6.80
2018-11-13T05:22:48.155Z,12.70
2018-11-13T05:25:18.689Z,10.07
2018-11-13T05:27:47.944Z,4.40
2018-11-13T05:30:20.045Z,23.20
2018-11-13T05:32:49.300Z,4.23
2018-11-13T05:35:19.497Z,4.83
2018-11-13T05:37:48.857Z,5.93
2018-11-13T05:40:22.522Z,4.83
2018-11-13T05:42:51.869Z,4.30
2018-11-13T05:45:22.234Z,4.50
2018-11-13T05:47:51.349Z,4.20
2018-11-13T05:50:21.074Z,4.40
2018-11-13T05:52:51.465Z,4.70
2018-11-13T05:55:20.589Z,4.40
2018-11-13T05:57:49.973Z,4.10
2018-11-13T06:00:36.582Z,3.97
2018-11-13T06:03:06.044Z,3.80
2018-11-13T06:05:35.397Z,4.33
2018-11-13T06:08:04.717Z,4.47
2018-11-13T06:10:33.659Z,5.20
2018-11-13T06:13:02.987Z,5.33
2018-11-13T06:15:32.205Z,5.27
2018-11-13T06:18:01.369Z,5.33
2018-11-13T06:20:30.498Z,4.97
2018-11-13T06:22:59.694Z,5.47
2018-11-13T06:25:28.818Z,6.70
2018-11-13T06:27:57.969Z,56.07
2018-11-13T06:30:27.459Z,74.13
2018-11-13T06:32:56.859Z,63.80
2018-11-13T06:35:26.303Z,57.23
2018-11-13T06:37:55.700Z,63.67
2018-11-13T06:40:24.902Z,27.23
2018-11-13T06:42:54.203Z,26.83
2018-11-13T06:45:23.913Z,9.10
2018-11-13T06:47:53.289Z,7.17
2018-11-13T06:50:22.709Z,9.13
2018-11-13T06:52:51.995Z,11.27
2018-11-13T06:55:36.324Z,6.27
2018-11-13T06:58:05.933Z,6.53
2018-11-13T07:00:35.159Z,5.10
2018-11-13T07:03:04.463Z,5.90
2018-11-13T07:05:33.724Z,4.43
2018-11-13T07:08:03.029Z,4.53
2018-11-13T07:10:32.575Z,6.87
2018-11-13T07:13:02.070Z,5.00
2018-11-13T07:15:32.065Z,5.93
2018-11-13T07:18:03.505Z,6.00
2018-11-13T07:20:33.884Z,4.53
2018-11-13T07:23:03.457Z,3.93
2018-11-13T07:25:32.739Z,4.43
2018-11-13T07:28:01.960Z,5.17
2018-11-13T07:30:31.054Z,4.50
2018-11-13T07:33:00.150Z,7.60
2018-11-13T07:35:29.258Z,4.67
2018-11-13T07:37:59.394Z,6.47
2018-11-13T07:40:28.853Z,4.47
2018-11-13T07:42:58.057Z,5.97
2018-11-13T07:45:27.373Z,5.07
2018-11-13T07:47:56.874Z,4.70
2018-11-13T07:50:26.049Z,4.53
2018-11-13T07:52:55.361Z,4.60
2018-11-13T07:55:24.573Z,4.23
2018-11-13T07:57:53.797Z,4.50
2018-11-13T08:00:24.370Z,4.20
2018-11-13T08:02:55.152Z,5.23
2018-11-13T08:05:24.494Z,5.30
2018-11-13T08:07:53.718Z,7.07
2018-11-13T08:10:22.917Z,7.17
2018-11-13T08:12:52.439Z,7.77
2018-11-13T08:15:21.606Z,5.77
2018-11-13T08:17:50.815Z,28.23
2018-11-13T08:20:20.009Z,17.33
2018-11-13T08:22:49.154Z,14.23
2018-11-13T08:25:18.377Z,41.83
2018-11-13T08:27:47.506Z,69.40
2018-11-13T08:30:18.590Z,68.43
2018-11-13T08:32:48.159Z,67.30
2018-11-13T08:35:17.526Z,63.57
2018-11-13T08:37:46.859Z,99.40
2018-11-13T08:40:17.336Z,107.33
2018-11-13T08:42:47.061Z,86.33
2018-11-13T08:45:16.617Z,68.20
2018-11-13T08:47:45.949Z,139.43
2018-11-13T08:50:15.780Z,77.60
2018-11-13T08:52:45.746Z,112.83
2018-11-13T08:55:14.978Z,118.47
2018-11-13T08:57:44.341Z,104.70
2018-11-13T09:00:15.408Z,43.83
2018-11-13T09:02:45.173Z,79.37
2018-11-13T09:05:14.586Z,113.93
2018-11-13T09:07:46.692Z,99.37
2018-11-13T09:10:17.562Z,94.80
2018-11-13T09:12:47.222Z,130.03
2018-11-13T09:15:17.854Z,93.30
2018-11-13T09:17:47.210Z,158.97
2018-11-13T09:20:17.680Z,121.60
2018-11-13T09:22:46.861Z,144.87
2018-11-13T09:25:20.089Z,108.63
2018-11-13T09:27:49.404Z,67.30
2018-11-13T09:30:20.232Z,110.03
2018-11-13T09:32:49.681Z,112.77
2018-11-13T09:35:19.629Z,105.30
2018-11-13T09:37:49.003Z,78.63
2018-11-13T09:40:19.608Z,80.93
2018-11-13T09:42:50.081Z,104.57
2018-11-13T09:45:19.636Z,148.27
2018-11-13T09:47:48.887Z,74.57
2018-11-13T09:50:19.285Z,90.50
2018-11-13T09:52:49.890Z,79.33
2018-11-13T09:55:20.371Z,75.57
2018-11-13T09:57:49.797Z,46.70
2018-11-13T10:00:20.633Z,57.60
2018-11-13T10:02:51.616Z,81.50
2018-11-13T10:05:21.153Z,55.03
2018-11-13T10:07:50.987Z,67.40
2018-11-13T10:10:20.127Z,76.10
2018-11-13T10:12:49.514Z,64.43
2018-11-13T10:15:21.182Z,66.43
2018-11-13T10:17:50.854Z,52.87
2018-11-13T10:20:20.041Z,30.83
2018-11-13T10:22:50.638Z,36.90
2018-11-13T10:25:20.103Z,32.07
2018-11-13T10:27:49.374Z,15.63
2018-11-13T10:30:19.755Z,6.30
2018-11-13T10:32:49.493Z,6.93
2018-11-13T10:35:19.977Z,5.83
2018-11-13T10:37:49.456Z,5.27
2018-11-13T10:40:20.029Z,4.90
2018-11-13T10:42:49.526Z,5.20
2018-11-13T10:45:20.287Z,3.60
2018-11-13T10:47:49.517Z,4.00
2018-11-13T10:50:20.443Z,3.97
2018-11-13T10:52:49.666Z,3.40
2018-11-13T10:55:18.832Z,3.53
2018-11-13T10:57:47.970Z,2.90
2018-11-13T11:00:22.917Z,3.50
2018-11-13T11:02:58.439Z,2.70
2018-11-13T11:05:28.393Z,2.83
2018-11-13T11:07:58.093Z,4.33
2018-11-13T11:10:28.131Z,3.20
2018-11-13T11:12:57.557Z,2.17
2018-11-13T11:15:26.737Z,3.60
2018-11-13T11:17:55.967Z,2.27
2018-11-13T11:20:25.165Z,2.30
2018-11-13T11:22:54.583Z,2.70
2018-11-13T11:25:24.100Z,2.50
2018-11-13T11:27:53.612Z,2.70
2018-11-13T11:30:22.945Z,3.83
2018-11-13T11:32:52.166Z,1.93
2018-11-13T11:35:21.510Z,2.30
2018-11-13T11:37:50.769Z,2.77
2018-11-13T11:40:19.933Z,2.60
2018-11-13T11:42:49.169Z,1.90
2018-11-13T11:45:18.276Z,2.23
2018-11-13T11:47:47.459Z,2.03
2018-11-13T11:50:16.758Z,3.90
2018-11-13T11:52:46.077Z,3.07
2018-11-13T11:55:15.351Z,2.37
2018-11-13T11:57:44.549Z,3.17
2018-11-13T12:00:16.298Z,2.30
2018-11-13T12:02:45.606Z,2.77
2018-11-13T12:05:14.773Z,2.47
2018-11-13T12:07:43.989Z,2.70
2018-11-13T12:10:14.076Z,3.23
2018-11-13T12:12:43.519Z,2.97
2018-11-13T12:15:13.558Z,3.80
2018-11-13T12:17:43.293Z,4.03
2018-11-13T12:20:13.709Z,3.03
2018-11-13T12:22:43.062Z,2.53
2018-11-13T12:25:16.150Z,3.50
2018-11-13T12:27:45.320Z,4.23
2018-11-13T12:30:16.630Z,3.07
2018-11-13T12:32:46.613Z,5.33
2018-11-13T12:35:16.661Z,3.07
2018-11-13T12:37:45.827Z,3.17
2018-11-13T12:40:17.173Z,3.73
2018-11-13T12:42:46.931Z,2.80
2018-11-13T12:45:16.213Z,3.20
2018-11-13T12:47:45.640Z,3.60
2018-11-13T12:50:16.310Z,2.77
2018-11-13T12:52:45.478Z,2.67
2018-11-13T12:55:20.233Z,2.60
2018-11-13T12:57:49.132Z,3.00
2018-11-13T13:00:21.341Z,2.40
2018-11-13T13:02:50.293Z,4.57
2018-11-13T13:05:19.566Z,2.87
2018-11-13T13:07:49.205Z,4.73
2018-11-13T13:10:19.341Z,4.20
2018-11-13T13:12:48.614Z,3.90
2018-11-13T13:15:18.380Z,3.73
2018-11-13T13:17:47.595Z,5.20
2018-11-13T13:20:23.433Z,8.73
2018-11-13T13:22:53.430Z,6.10
2018-11-13T13:25:23.676Z,3.70
2018-11-13T13:27:53.145Z,4.13
2018-11-13T13:30:23.807Z,4.23
2018-11-13T13:32:53.058Z,4.17
2018-11-13T13:35:39.269Z,5.00
2018-11-13T13:38:08.896Z,4.63
2018-11-13T13:40:39.160Z,4.80
2018-11-13T13:43:09.265Z,6.17
2018-11-13T13:45:39.142Z,6.97
2018-11-13T13:48:08.385Z,5.17
2018-11-13T13:50:38.064Z,6.73
2018-11-13T13:53:07.828Z,6.30
2018-11-13T13:55:37.385Z,5.97
2018-11-13T13:58:06.426Z,5.40
2018-11-13T14:00:35.798Z,6.07
2018-11-13T14:03:05.520Z,9.00
2018-11-13T14:05:34.552Z,4.03
2018-11-13T14:08:03.805Z,9.10
2018-11-13T14:10:33.011Z,4.83
2018-11-13T14:13:01.930Z,10.37
2018-11-13T14:15:31.279Z,3.90
2018-11-13T14:18:01.018Z,4.93
2018-11-13T14:20:30.619Z,3.70
2018-11-13T14:22:59.521Z,7.60
2018-11-13T14:25:28.817Z,5.93
2018-11-13T14:27:58.271Z,5.33
2018-11-13T14:30:28.853Z,4.03
2018-11-13T14:33:00.298Z,6.07
2018-11-13T14:35:29.240Z,4.97
2018-11-13T14:37:57.949Z,5.03
2018-11-13T14:40:30.298Z,9.07
2018-11-13T14:42:59.458Z,6.10
2018-11-13T14:45:28.794Z,6.70
2018-11-13T14:47:58.637Z,4.50
2018-11-13T14:50:29.120Z,4.30
2018-11-13T14:52:58.464Z,5.80
2018-11-13T14:55:32.551Z,5.63
2018-11-13T14:58:02.361Z,3.50
2018-11-13T15:00:32.471Z,5.40
2018-11-13T15:03:02.794Z,4.03
2018-11-13T15:05:32.269Z,3.30
2018-11-13T15:08:04.363Z,3.27
2018-11-13T15:10:36.309Z,2.60
2018-11-13T15:13:05.644Z,2.43
2018-11-13T15:15:34.534Z,2.60
2018-11-13T15:18:03.744Z,2.73
2018-11-13T15:20:33.042Z,2.90
2018-11-13T15:23:02.443Z,2.67
2018-11-13T15:25:31.545Z,3.37
2018-11-13T15:28:00.453Z,3.60
2018-11-13T15:30:31.257Z,6.63
2018-11-13T15:33:01.942Z,3.40
2018-11-13T15:35:31.370Z,3.30
2018-11-13T15:38:00.610Z,3.80
2018-11-13T15:40:30.466Z,3.90
2018-11-13T15:42:59.701Z,2.80
2018-11-13T15:45:28.612Z,3.10
2018-11-13T15:47:59.086Z,4.80
2018-11-13T15:50:29.400Z,3.50
2018-11-13T15:52:58.781Z,4.00
2018-11-13T15:55:28.120Z,3.50
2018-11-13T15:57:57.758Z,3.30
2018-11-13T16:00:29.338Z,3.53
2018-11-13T16:02:59.722Z,3.67
2018-11-13T16:05:32.419Z,4.57
2018-11-13T16:08:02.809Z,5.60
2018-11-13T16:10:32.085Z,5.83
2018-11-13T16:13:01.613Z,9.13
2018-11-13T16:15:31.313Z,9.20
2018-11-13T16:18:01.782Z,7.20
2018-11-13T16:20:31.084Z,7.83
2018-11-13T16:23:00.243Z,7.50
2018-11-13T16:25:29.370Z,6.97
2018-11-13T16:27:58.980Z,7.95
2018-11-13T16:30:33.577Z,6.27
2018-11-13T16:33:02.931Z,7.73
2018-11-13T16:35:32.629Z,14.83
2018-11-13T16:38:03.430Z,15.77
2018-11-13T16:40:33.615Z,20.17
2018-11-13T16:43:03.160Z,21.30
2018-11-13T16:45:33.369Z,21.70
2018-11-13T16:48:03.249Z,19.57
2018-11-13T16:50:34.924Z,16.17
2018-11-13T16:53:04.251Z,20.13
2018-11-13T16:55:38.593Z,15.53
2018-11-13T16:58:09.882Z,12.67
2018-11-13T17:00:39.368Z,11.47
2018-11-13T17:03:08.505Z,11.87
2018-11-13T17:05:37.968Z,11.10
2018-11-13T17:08:07.326Z,10.97
2018-11-13T17:10:40.068Z,12.50
2018-11-13T17:13:09.424Z,10.77
2018-11-13T17:15:38.707Z,10.40
2018-11-13T17:18:08.237Z,12.47
2018-11-13T17:20:37.610Z,10.10
2018-11-13T17:23:06.713Z,10.30
2018-11-13T17:25:37.190Z,10.60
2018-11-13T17:28:07.150Z,10.47
2018-11-13T17:30:37.002Z,10.73
2018-11-13T17:33:07.898Z,13.03
2018-11-13T17:35:37.101Z,10.03
2018-11-13T17:38:07.004Z,10.20
2018-11-13T17:40:38.313Z,12.47
2018-11-13T17:43:08.537Z,11.13
2018-11-13T17:45:39.261Z,10.73
2018-11-13T17:48:09.682Z,10.77
2018-11-13T17:50:40.210Z,9.20
2018-11-13T17:53:10.142Z,9.20
2018-11-13T17:55:39.621Z,9.17
2018-11-13T17:58:10.771Z,8.63
2018-11-13T18:00:41.906Z,8.80
2018-11-13T18:03:12.276Z,13.40
2018-11-13T18:05:41.893Z,9.20
2018-11-13T18:08:11.552Z,10.17
2018-11-13T18:10:42.011Z,7.87
2018-11-13T18:13:11.285Z,6.73
2018-11-13T18:15:40.833Z,6.93
2018-11-13T18:18:10.249Z,6.57
2018-11-13T18:20:40.413Z,6.77
2018-11-13T18:23:10.012Z,5.63
2018-11-13T18:25:38.969Z,5.40
2018-11-13T18:28:08.560Z,4.93
2018-11-13T18:30:38.884Z,4.73
2018-11-13T18:33:08.629Z,5.67
2018-11-13T18:35:39.417Z,4.80
2018-11-13T18:38:10.766Z,5.20
2018-11-13T18:40:40.065Z,4.73
2018-11-13T18:43:09.377Z,4.27
2018-11-13T18:45:39.977Z,5.77
2018-11-13T18:48:09.440Z,5.87
2018-11-13T18:50:42.244Z,3.60
2018-11-13T18:53:11.595Z,4.80
2018-11-13T18:55:41.149Z,4.10
2018-11-13T18:58:10.664Z,3.87
2018-11-13T19:00:40.777Z,5.83
2018-11-13T19:03:12.141Z,5.20
2018-11-13T19:05:41.472Z,5.17
2018-11-13T19:08:10.860Z,5.20
2018-11-13T19:10:41.594Z,8.87
2018-11-13T19:13:12.595Z,7.73
2018-11-13T19:15:43.706Z,5.53
2018-11-13T19:18:13.367Z,3.90
2018-11-13T19:20:42.949Z,4.07
2018-11-13T19:23:12.760Z,3.90
2018-11-13T19:25:42.366Z,6.53
2018-11-13T19:28:11.769Z,6.33
2018-11-13T19:30:41.364Z,6.43
2018-11-13T19:33:11.186Z,5.43
2018-11-13T19:35:40.826Z,4.03
2018-11-13T19:38:09.931Z,3.80
2018-11-13T19:40:39.182Z,4.00
2018-11-13T19:43:09.584Z,3.67
2018-11-13T19:45:39.258Z,4.20
2018-11-13T19:48:08.646Z,4.57
2018-11-13T19:50:38.561Z,4.67
2018-11-13T19:53:07.644Z,3.60
2018-11-13T19:55:37.353Z,6.33
2018-11-13T19:58:06.499Z,5.63
2018-11-13T20:00:37.055Z,7.50
2018-11-13T20:03:07.583Z,5.70
2018-11-13T20:05:36.981Z,5.13
2018-11-13T20:08:07.151Z,5.20
2018-11-13T20:10:36.948Z,4.87
2018-11-13T20:13:07.735Z,5.73
2018-11-13T20:15:37.633Z,4.73
2018-11-13T20:18:07.427Z,5.80
2018-11-13T20:20:37.443Z,5.70
2018-11-13T20:23:08.085Z,6.20
2018-11-13T20:25:37.490Z,7.37
2018-11-13T20:28:07.523Z,7.23
2018-11-13T20:30:38.234Z,10.07
2018-11-13T20:33:07.434Z,11.90
2018-11-13T20:35:36.442Z,13.43
2018-11-13T20:38:05.881Z,11.73
2018-11-13T20:40:35.891Z,17.20
2018-11-13T20:43:06.312Z,12.93
2018-11-13T20:45:35.264Z,13.10
2018-11-13T20:48:10.786Z,12.53
2018-11-13T20:50:39.690Z,9.43
2018-11-13T20:53:08.619Z,10.17
2018-11-13T20:55:37.551Z,13.40
2018-11-13T20:58:07.342Z,9.57
2018-11-13T21:00:37.602Z,9.83
2018-11-13T21:03:07.784Z,8.87
2018-11-13T21:05:36.777Z,8.73
2018-11-13T21:08:05.721Z,7.67
2018-11-13T21:10:40.546Z,8.27
2018-11-13T21:13:10.692Z,10.30
2018-11-13T21:15:39.593Z,8.90
2018-11-13T21:18:08.991Z,6.93
2018-11-13T21:20:38.145Z,9.17
2018-11-13T21:23:07.065Z,7.17
2018-11-13T21:25:36.034Z,6.80
2018-11-13T21:28:05.000Z,7.27
2018-11-13T21:30:33.985Z,6.97
2018-11-13T21:33:03.230Z,8.43
2018-11-13T21:35:32.490Z,7.40
2018-11-13T21:38:01.677Z,6.20
2018-11-13T21:40:30.602Z,6.37
2018-11-13T21:42:59.782Z,8.10
2018-11-13T21:45:29.359Z,8.47
2018-11-13T21:47:58.314Z,7.90
2018-11-13T21:50:28.541Z,7.10
2018-11-13T21:52:57.449Z,9.13
2018-11-13T21:55:27.659Z,8.47
2018-11-13T21:57:56.537Z,8.73
2018-11-13T22:00:28.418Z,10.50
2018-11-13T22:03:02.682Z,8.63
2018-11-13T22:05:32.401Z,8.63
2018-11-13T22:08:01.395Z,7.63
2018-11-13T22:10:30.501Z,8.40
2018-11-13T22:12:59.661Z,10.23
2018-11-13T22:15:29.657Z,11.30
2018-11-13T22:17:59.115Z,8.70
2018-11-13T22:20:28.029Z,8.10
2018-11-13T22:22:58.322Z,10.97
2018-11-13T22:25:27.732Z,7.43
2018-11-13T22:27:57.699Z,8.40
2018-11-13T22:30:30.850Z,10.57
2018-11-13T22:32:59.782Z,11.10
2018-11-13T22:35:28.742Z,14.07
2018-11-13T22:37:57.679Z,9.33
2018-11-13T22:40:27.969Z,8.73
2018-11-13T22:42:57.134Z,10.47
2018-11-13T22:45:27.264Z,9.13
2018-11-13T22:47:56.563Z,7.70
2018-11-13T22:50:30.590Z,8.70
2018-11-13T22:52:59.537Z,11.50
2018-11-13T22:55:29.189Z,9.03
2018-11-13T22:57:59.281Z,12.03
2018-11-13T23:00:39.365Z,12.23
2018-11-13T23:03:11.904Z,12.03
2018-11-13T23:05:48.273Z,10.63
2018-11-13T23:08:18.395Z,13.73
2018-11-13T23:10:48.616Z,11.70
2018-11-13T23:13:17.577Z,12.07
2018-11-13T23:15:46.811Z,10.40
2018-11-13T23:18:15.713Z,11.90
2018-11-13T23:20:44.687Z,12.23
2018-11-13T23:23:13.559Z,13.33
2018-11-13T23:25:42.813Z,13.37
2018-11-13T23:28:11.756Z,11.57
2018-11-13T23:30:40.729Z,12.20
2018-11-13T23:33:09.638Z,12.03
2018-11-13T23:35:38.793Z,13.70
2018-11-13T23:38:08.047Z,11.83
2018-11-13T23:40:37.253Z,11.87
2018-11-13T23:43:06.246Z,14.33
2018-11-13T23:45:35.117Z,12.20
2018-11-13T23:48:04.334Z,12.87
2018-11-13T23:50:33.273Z,15.63
2018-11-13T23:53:02.635Z,12.50
2018-11-13T23:55:31.754Z,13.17
2018-11-13T23:58:00.954Z,14.87
